createdAt,value
2023-03-21T00:01:50.784Z,4.88
2023-03-21T00:04:17.892Z,4.80
2023-03-21T00:06:44.928Z,6.80
2023-03-21T00:09:12.407Z,5.72
2023-03-21T00:11:39.697Z,5.47
2023-03-21T00:14:09.112Z,5.25
2023-03-21T00:16:37.874Z,5.22
2023-03-21T00:19:10.114Z,5.03
2023-03-21T00:21:49.033Z,4.72
2023-03-21T00:24:23.624Z,5.45
2023-03-21T00:26:51.347Z,5.03
2023-03-21T00:29:18.331Z,5.57
2023-03-21T00:31:45.650Z,5.10
2023-03-21T00:36:40.508Z,4.75
2023-03-21T00:39:07.665Z,5.47
2023-03-21T00:41:42.577Z,5.35
2023-03-21T00:44:16.153Z,5.30
2023-03-21T00:46:57.076Z,5.00
2023-03-21T00:49:28.067Z,4.75
2023-03-21T00:51:55.302Z,5.00
2023-03-21T00:54:24.215Z,4.88
2023-03-21T00:56:51.095Z,5.00
2023-03-21T00:59:17.964Z,4.40
2023-03-21T01:01:46.816Z,5.10
2023-03-21T01:04:17.225Z,4.55
2023-03-21T01:06:44.180Z,4.40
2023-03-21T01:09:18.614Z,5.13
2023-03-21T01:11:45.628Z,4.57
2023-03-21T01:14:22.628Z,4.90
2023-03-21T01:16:53.648Z,4.93
2023-03-21T01:19:37.627Z,4.75
2023-03-21T01:22:09.732Z,4.70
2023-03-21T01:24:40.562Z,5.50
2023-03-21T01:27:10.999Z,5.45
2023-03-21T01:29:37.973Z,5.85
2023-03-21T01:32:05.086Z,5.53
2023-03-21T01:34:32.484Z,5.65
2023-03-21T01:36:59.485Z,5.05
2023-03-21T01:39:26.610Z,4.57
2023-03-21T01:41:53.478Z,4.90
2023-03-21T01:44:20.510Z,5.35
2023-03-21T01:49:41.930Z,4.88
2023-03-21T01:52:15.173Z,4.40
2023-03-21T01:54:42.465Z,5.35
2023-03-21T01:57:22.624Z,5.25
2023-03-21T01:59:52.004Z,5.53
2023-03-21T02:02:28.198Z,5.13
2023-03-21T02:04:58.407Z,5.65
2023-03-21T02:07:31.973Z,5.47
2023-03-21T02:09:59.208Z,5.05
2023-03-21T02:12:27.093Z,5.38
2023-03-21T02:14:53.931Z,5.20
2023-03-21T02:17:39.540Z,5.38
2023-03-21T02:20:30.980Z,5.35
2023-03-21T02:23:10.198Z,4.57
2023-03-21T02:26:14.434Z,4.80
2023-03-21T02:29:07.676Z,4.40
2023-03-21T02:32:09.293Z,4.57
2023-03-21T02:35:11.023Z,4.65
2023-03-21T02:38:00.068Z,4.32
2023-03-21T02:40:43.708Z,4.32
2023-03-21T02:43:22.635Z,4.95
2023-03-21T02:45:59.729Z,4.35
2023-03-21T02:48:44.557Z,4.65
2023-03-21T02:51:17.934Z,4.85
2023-03-21T02:53:51.748Z,5.03
2023-03-21T02:56:23.156Z,4.07
2023-03-21T02:58:50.410Z,4.03
2023-03-21T03:01:17.490Z,4.30
2023-03-21T03:03:44.538Z,4.53
2023-03-21T03:06:19.272Z,4.85
2023-03-21T03:08:59.758Z,5.07
2023-03-21T03:11:36.034Z,4.78
2023-03-21T03:14:43.841Z,4.10
2023-03-21T03:17:14.948Z,4.82
2023-03-21T03:20:04.262Z,4.80
2023-03-21T03:22:49.296Z,4.45
2023-03-21T03:25:29.792Z,4.63
2023-03-21T03:28:07.336Z,4.75
2023-03-21T03:30:43.082Z,4.35
2023-03-21T03:35:50.297Z,4.47
2023-03-21T03:38:21.949Z,4.57
2023-03-21T03:40:50.848Z,4.53
2023-03-21T03:43:30.546Z,4.90
2023-03-21T03:48:33.197Z,4.38
2023-03-21T03:51:07.527Z,5.03
2023-03-21T03:53:55.172Z,5.00
2023-03-21T03:56:23.042Z,4.80
2023-03-21T03:58:50.255Z,5.32
2023-03-21T04:01:18.086Z,4.78
2023-03-21T04:03:50.461Z,4.85
2023-03-21T04:06:19.434Z,4.85
2023-03-21T04:08:46.587Z,5.18
2023-03-21T04:11:15.921Z,5.28
2023-03-21T04:13:43.124Z,5.63
2023-03-21T04:16:12.029Z,4.90
2023-03-21T04:18:42.494Z,5.07
2023-03-21T04:21:11.284Z,5.22
2023-03-21T04:23:40.252Z,5.18
2023-03-21T04:26:07.424Z,5.30
2023-03-21T04:28:36.788Z,5.05
2023-03-21T04:31:15.955Z,4.85
2023-03-21T04:33:50.312Z,4.70
2023-03-21T04:36:25.721Z,4.70
2023-03-21T04:38:52.921Z,5.65
2023-03-21T04:41:19.920Z,5.00
2023-03-21T04:43:48.366Z,4.80
2023-03-21T04:46:16.220Z,4.75
2023-03-21T04:48:43.199Z,4.10
2023-03-21T04:51:10.169Z,5.00
2023-03-21T04:53:38.646Z,4.93
2023-03-21T04:56:07.100Z,4.43
2023-03-21T04:58:34.089Z,4.55
2023-03-21T05:01:02.985Z,4.50
2023-03-21T05:03:34.904Z,4.18
2023-03-21T05:06:01.781Z,4.72
2023-03-21T05:08:28.742Z,4.47
2023-03-21T05:10:55.878Z,4.65
2023-03-21T05:13:22.744Z,4.60
2023-03-21T05:15:49.572Z,4.75
2023-03-21T05:18:24.988Z,4.50
2023-03-21T05:20:55.938Z,3.83
2023-03-21T05:23:24.128Z,4.70
2023-03-21T05:25:51.212Z,4.07
2023-03-21T05:28:18.653Z,4.03
2023-03-21T05:30:47.007Z,3.90
2023-03-21T05:33:14.069Z,4.00
2023-03-21T05:35:41.428Z,3.97
2023-03-21T05:38:08.399Z,3.92
2023-03-21T05:40:35.411Z,4.32
2023-03-21T05:43:02.277Z,3.83
2023-03-21T05:45:29.344Z,4.20
2023-03-21T05:47:56.251Z,4.10
2023-03-21T05:50:23.143Z,4.25
2023-03-21T05:52:50.068Z,4.15
2023-03-21T05:55:16.950Z,4.40
2023-03-21T05:57:43.930Z,4.65
2023-03-21T06:00:13.079Z,5.20
2023-03-21T06:02:40.222Z,4.70
2023-03-21T06:05:07.854Z,4.43
2023-03-21T06:07:35.714Z,4.72
2023-03-21T06:10:03.271Z,4.32
2023-03-21T06:12:30.765Z,4.05
2023-03-21T06:14:57.635Z,3.85
2023-03-21T06:17:24.610Z,3.65
2023-03-21T06:19:51.672Z,4.13
2023-03-21T06:22:18.622Z,3.85
2023-03-21T06:24:45.455Z,4.10
2023-03-21T06:27:12.368Z,5.00
2023-03-21T06:29:39.229Z,4.30
2023-03-21T06:32:07.796Z,4.80
2023-03-21T06:34:34.782Z,4.68
2023-03-21T06:37:02.329Z,3.67
2023-03-21T06:39:29.442Z,3.50
2023-03-21T06:41:56.235Z,3.60
2023-03-21T06:44:24.995Z,3.40
2023-03-21T06:46:52.578Z,3.65
2023-03-21T06:49:20.356Z,3.50
2023-03-21T06:51:47.208Z,3.60
2023-03-21T06:54:14.809Z,3.47
2023-03-21T06:56:41.857Z,3.60
2023-03-21T06:59:09.248Z,3.00
2023-03-21T07:01:36.251Z,3.40
2023-03-21T07:04:04.886Z,3.35
2023-03-21T07:06:31.896Z,3.50
2023-03-21T07:08:58.857Z,3.50
2023-03-21T07:11:26.002Z,3.80
2023-03-21T07:13:52.888Z,3.50
2023-03-21T07:16:21.765Z,3.97
2023-03-21T07:21:15.636Z,3.72
2023-03-21T07:23:42.597Z,3.67
2023-03-21T07:26:09.519Z,3.47
2023-03-21T07:28:36.669Z,4.13
2023-03-21T07:31:04.983Z,3.95
2023-03-21T07:33:31.856Z,3.92
2023-03-21T07:35:58.914Z,3.67
2023-03-21T07:38:26.101Z,4.10
2023-03-21T07:40:53.143Z,4.18
2023-03-21T07:43:20.126Z,3.80
2023-03-21T07:45:47.134Z,4.00
2023-03-21T07:48:14.132Z,3.80
2023-03-21T07:50:41.328Z,4.00
2023-03-21T07:53:08.341Z,3.85
2023-03-21T07:55:36.092Z,3.60
2023-03-21T07:58:04.386Z,3.78
2023-03-21T08:00:31.526Z,3.30
2023-03-21T08:02:59.239Z,3.00
2023-03-21T08:05:31.595Z,3.17
2023-03-21T08:07:58.621Z,3.40
2023-03-21T08:10:25.664Z,3.15
2023-03-21T08:12:52.629Z,3.30
2023-03-21T08:15:19.601Z,3.30
2023-03-21T08:17:46.525Z,3.00
2023-03-21T08:20:16.905Z,2.80
2023-03-21T08:22:43.915Z,2.90
2023-03-21T08:25:14.206Z,2.80
2023-03-21T08:27:42.212Z,2.97
2023-03-21T08:30:10.924Z,2.85
2023-03-21T08:35:10.601Z,3.00
2023-03-21T08:37:38.385Z,2.88
2023-03-21T08:40:11.517Z,2.80
2023-03-21T08:42:38.909Z,2.90
2023-03-21T08:45:07.007Z,2.70
2023-03-21T08:47:33.975Z,3.00
2023-03-21T08:50:00.835Z,2.70
2023-03-21T08:52:28.010Z,2.60
2023-03-21T08:54:55.857Z,2.58
2023-03-21T08:57:22.746Z,2.70
2023-03-21T08:59:49.686Z,2.55
2023-03-21T09:02:18.044Z,2.53
2023-03-21T09:04:45.102Z,2.50
2023-03-21T09:07:15.280Z,2.60
2023-03-21T09:09:42.488Z,2.50
2023-03-21T09:12:09.510Z,2.70
2023-03-21T09:14:37.007Z,2.70
2023-03-21T09:17:03.927Z,2.70
2023-03-21T09:19:32.170Z,2.53
2023-03-21T09:22:00.093Z,2.70
2023-03-21T09:24:27.253Z,3.00
2023-03-21T09:26:54.262Z,2.80
2023-03-21T09:29:21.698Z,2.33
2023-03-21T09:34:15.884Z,2.20
2023-03-21T09:39:12.025Z,2.20
2023-03-21T09:42:01.081Z,2.45
2023-03-21T09:45:06.561Z,2.70
2023-03-21T09:47:45.686Z,2.58
2023-03-21T09:50:17.608Z,2.80
2023-03-21T09:52:59.808Z,2.60
2023-03-21T09:55:35.956Z,2.90
2023-03-21T09:58:04.788Z,2.80
2023-03-21T10:00:37.709Z,2.90
2023-03-21T10:03:10.344Z,3.00
2023-03-21T10:05:39.646Z,3.50
2023-03-21T10:08:15.412Z,3.38
2023-03-21T10:10:53.680Z,3.78
2023-03-21T10:15:49.208Z,3.60
2023-03-21T10:18:24.508Z,3.72
2023-03-21T10:20:52.041Z,4.00
2023-03-21T10:23:20.890Z,3.65
2023-03-21T10:25:58.829Z,3.90
2023-03-21T10:28:42.404Z,3.80
2023-03-21T10:31:26.349Z,3.80
2023-03-21T10:33:54.610Z,3.95
2023-03-21T10:36:26.531Z,4.22
2023-03-21T10:38:59.221Z,4.18
2023-03-21T10:41:26.396Z,3.97
2023-03-21T10:44:17.237Z,3.85
2023-03-21T10:46:58.567Z,3.78
2023-03-21T10:49:27.091Z,4.30
2023-03-21T10:51:56.268Z,4.38
2023-03-21T10:54:26.106Z,4.32
2023-03-21T10:57:03.781Z,4.38
2023-03-21T10:59:38.332Z,3.83
2023-03-21T11:02:05.578Z,3.85
2023-03-21T11:04:32.570Z,3.90
2023-03-21T11:07:07.449Z,4.25
2023-03-21T11:09:53.635Z,4.22
2023-03-21T11:12:41.189Z,4.28
2023-03-21T11:15:37.701Z,4.07
2023-03-21T11:18:33.512Z,4.22
2023-03-21T11:21:08.146Z,4.05
2023-03-21T11:23:37.555Z,3.92
2023-03-21T11:26:04.466Z,3.78
2023-03-21T11:28:38.106Z,4.35
2023-03-21T11:31:05.235Z,4.50
2023-03-21T11:33:37.296Z,4.53
2023-03-21T11:36:09.323Z,3.90
2023-03-21T11:38:40.053Z,4.70
2023-03-21T11:41:07.664Z,4.50
2023-03-21T11:43:38.625Z,5.00
2023-03-21T11:46:05.832Z,4.40
2023-03-21T11:48:43.821Z,4.20
2023-03-21T11:51:37.332Z,4.65
2023-03-21T11:54:10.171Z,4.30
2023-03-21T11:56:45.449Z,4.03
2023-03-21T11:59:38.923Z,4.68
2023-03-21T12:02:20.702Z,4.00
2023-03-21T12:05:13.428Z,4.10
2023-03-21T12:08:02.348Z,3.80
2023-03-21T12:10:36.288Z,3.88
2023-03-21T12:13:28.377Z,4.00
2023-03-21T12:16:11.757Z,3.28
2023-03-21T12:19:16.758Z,2.50
2023-03-21T12:21:55.094Z,1.85
2023-03-21T12:27:02.278Z,2.17
2023-03-21T12:29:34.197Z,3.50
2023-03-21T12:32:11.396Z,3.78
2023-03-21T12:34:47.626Z,4.35
2023-03-21T12:37:54.215Z,4.20
2023-03-21T12:40:59.478Z,4.70
2023-03-21T12:44:01.622Z,4.40
2023-03-21T12:46:34.574Z,4.03
2023-03-21T12:49:08.250Z,4.50
2023-03-21T12:51:41.390Z,4.57
2023-03-21T12:54:10.788Z,4.32
2023-03-21T12:56:55.536Z,4.55
2023-03-21T12:59:44.072Z,4.22
2023-03-21T13:02:49.342Z,4.38
2023-03-21T13:05:28.582Z,4.38
2023-03-21T13:08:00.153Z,4.18
2023-03-21T13:10:27.466Z,4.50
2023-03-21T13:13:20.353Z,4.30
2023-03-21T13:16:02.472Z,4.63
2023-03-21T13:18:47.483Z,4.93
2023-03-21T13:21:43.371Z,5.10
2023-03-21T13:24:32.358Z,5.20
2023-03-21T13:27:08.197Z,5.32
2023-03-21T13:30:02.811Z,4.10
2023-03-21T13:32:41.173Z,5.20
2023-03-21T13:35:30.846Z,4.97
2023-03-21T13:37:59.039Z,5.00
2023-03-21T13:40:28.589Z,4.68
2023-03-21T13:43:03.796Z,4.95
2023-03-21T13:45:44.776Z,5.18
2023-03-21T13:48:58.496Z,4.80
2023-03-21T13:51:44.369Z,4.78
2023-03-21T13:54:14.030Z,4.82
2023-03-21T13:56:47.052Z,4.95
2023-03-21T13:59:18.286Z,4.72
2023-03-21T14:02:15.265Z,4.80
2023-03-21T14:04:59.919Z,4.85
2023-03-21T14:07:31.687Z,4.93
2023-03-21T14:12:37.635Z,4.72
2023-03-21T14:15:19.113Z,4.88
2023-03-21T14:18:16.120Z,5.07
2023-03-21T14:20:56.969Z,4.38
2023-03-21T14:23:24.449Z,4.38
2023-03-21T14:25:51.595Z,4.40
2023-03-21T14:28:21.379Z,4.47
2023-03-21T14:30:51.980Z,4.45
2023-03-21T14:33:38.520Z,4.70
2023-03-21T14:36:09.257Z,4.32
2023-03-21T14:38:37.737Z,3.90
2023-03-21T14:41:04.969Z,4.00
2023-03-21T14:43:34.648Z,3.78
2023-03-21T14:46:01.608Z,3.90
2023-03-21T14:48:33.266Z,3.88
2023-03-21T14:51:09.485Z,3.95
2023-03-21T14:53:40.672Z,4.45
2023-03-21T14:56:22.989Z,3.92
2023-03-21T14:58:49.929Z,3.50
2023-03-21T15:01:38.349Z,4.07
2023-03-21T15:04:06.233Z,3.80
2023-03-21T15:06:33.308Z,3.77
2023-03-21T15:09:02.419Z,3.60
2023-03-21T15:11:34.281Z,3.80
2023-03-21T15:14:13.144Z,3.92
2023-03-21T15:16:40.171Z,4.07
2023-03-21T15:19:07.451Z,4.43
2023-03-21T15:21:43.031Z,3.97
2023-03-21T15:24:33.954Z,4.20
2023-03-21T15:27:06.699Z,4.40
2023-03-21T15:29:34.650Z,4.60
2023-03-21T15:32:07.546Z,4.60
2023-03-21T15:34:34.385Z,4.45
2023-03-21T15:37:05.509Z,4.60
2023-03-21T15:39:34.153Z,4.55
2023-03-21T15:42:02.200Z,4.40
2023-03-21T15:44:29.364Z,5.00
2023-03-21T15:46:56.378Z,5.55
2023-03-21T15:49:31.688Z,5.20
2023-03-21T15:52:11.441Z,4.72
2023-03-21T15:54:48.155Z,5.28
2023-03-21T15:57:30.365Z,5.28
2023-03-21T16:00:02.958Z,4.88
2023-03-21T16:02:30.177Z,5.50
2023-03-21T16:05:15.547Z,5.10
2023-03-21T16:07:46.039Z,5.15
2023-03-21T16:10:29.704Z,5.03
2023-03-21T16:12:56.818Z,5.03
2023-03-21T16:15:25.153Z,4.82
2023-03-21T16:17:57.888Z,5.28
2023-03-21T16:20:29.558Z,5.57
2023-03-21T16:22:59.448Z,5.10
2023-03-21T16:25:26.326Z,4.70
2023-03-21T16:27:53.147Z,5.10
2023-03-21T16:30:21.171Z,4.90
2023-03-21T16:32:49.966Z,5.43
2023-03-21T16:35:17.075Z,6.13
2023-03-21T16:37:44.015Z,5.55
2023-03-21T16:40:27.916Z,5.88
2023-03-21T16:42:54.886Z,5.88
2023-03-21T16:45:23.330Z,5.95
2023-03-21T16:47:50.351Z,5.53
2023-03-21T16:50:35.532Z,5.70
2023-03-21T16:53:02.624Z,5.80
2023-03-21T16:55:29.703Z,5.57
2023-03-21T16:57:57.697Z,5.80
2023-03-21T17:00:27.521Z,6.40
2023-03-21T17:02:55.733Z,5.78
2023-03-21T17:05:26.192Z,6.00
2023-03-21T17:07:54.482Z,5.88
2023-03-21T17:10:27.208Z,5.63
2023-03-21T17:12:54.031Z,6.28
2023-03-21T17:15:21.390Z,6.45
2023-03-21T17:17:50.232Z,5.72
2023-03-21T17:20:21.640Z,6.00
2023-03-21T17:22:48.785Z,6.15
2023-03-21T17:25:15.933Z,5.93
2023-03-21T17:27:42.821Z,6.15
2023-03-21T17:30:27.183Z,6.20
2023-03-21T17:32:54.136Z,5.75
2023-03-21T17:35:22.220Z,5.72
2023-03-21T17:37:52.118Z,5.60
2023-03-21T17:40:24.352Z,5.32
2023-03-21T17:42:51.816Z,5.40
2023-03-21T17:45:19.007Z,5.10
2023-03-21T17:47:46.364Z,5.20
2023-03-21T17:50:23.073Z,5.28
2023-03-21T17:52:50.861Z,4.65
2023-03-21T17:55:19.750Z,5.10
2023-03-21T17:57:47.682Z,5.30
2023-03-21T18:00:21.506Z,4.90
2023-03-21T18:02:56.497Z,5.20
2023-03-21T18:05:23.551Z,6.38
2023-03-21T18:08:09.665Z,5.97
2023-03-21T18:10:37.840Z,5.35
2023-03-21T18:13:04.887Z,5.50
2023-03-21T18:15:31.806Z,4.85
2023-03-21T18:17:58.919Z,4.22
2023-03-21T18:20:49.772Z,4.22
2023-03-21T18:23:16.070Z,4.20
2023-03-21T18:25:43.317Z,4.68
2023-03-21T18:28:12.328Z,4.85
2023-03-21T18:31:06.940Z,4.80
2023-03-21T18:33:28.589Z,4.82
2023-03-21T18:35:59.764Z,5.35
2023-03-21T18:38:28.421Z,5.40
2023-03-21T18:40:55.845Z,5.45
2023-03-21T18:46:09.922Z,5.57
2023-03-21T18:48:36.888Z,5.10
2023-03-21T18:51:04.101Z,5.88
2023-03-21T18:53:31.158Z,5.93
2023-03-21T18:55:58.000Z,6.93
2023-03-21T18:58:25.529Z,6.10
2023-03-21T19:00:53.963Z,5.45
2023-03-21T19:03:35.408Z,5.45
2023-03-21T19:06:05.164Z,5.82
2023-03-21T19:08:34.826Z,6.20
2023-03-21T19:13:33.693Z,5.20
2023-03-21T19:16:02.349Z,5.60
2023-03-21T19:21:19.414Z,5.93
2023-03-21T19:26:34.046Z,6.32
2023-03-21T19:29:01.616Z,6.35
2023-03-21T19:31:28.598Z,6.00
2023-03-21T19:33:55.967Z,5.60
2023-03-21T19:36:23.545Z,5.95
2023-03-21T19:38:51.399Z,6.28
2023-03-21T19:41:19.407Z,7.00
2023-03-21T19:43:54.166Z,6.15
2023-03-21T19:46:25.330Z,6.20
2023-03-21T19:48:56.581Z,5.90
2023-03-21T19:51:28.806Z,6.25
2023-03-21T19:54:00.153Z,6.95
2023-03-21T19:56:28.081Z,7.50
2023-03-21T19:58:56.186Z,7.65
2023-03-21T20:01:24.527Z,6.85
2023-03-21T20:03:51.914Z,6.50
2023-03-21T20:06:18.874Z,6.82
2023-03-21T20:11:33.864Z,6.15
2023-03-21T20:14:03.326Z,6.18
2023-03-21T20:16:35.039Z,6.75
2023-03-21T20:19:06.263Z,7.82
2023-03-21T20:21:43.401Z,7.50
2023-03-21T20:24:16.635Z,7.15
2023-03-21T20:26:45.295Z,6.97
2023-03-21T20:30:03.941Z,7.18
2023-03-21T20:31:59.351Z,7.18
2023-03-21T20:34:26.461Z,7.03
2023-03-21T20:36:53.469Z,6.70
2023-03-21T20:39:20.469Z,6.35
2023-03-21T20:41:47.297Z,6.45
2023-03-21T20:44:48.123Z,6.45
2023-03-21T20:47:04.579Z,7.05
2023-03-21T20:49:31.888Z,8.30
2023-03-21T20:54:45.861Z,6.25
2023-03-21T20:57:12.714Z,5.53
2023-03-21T20:59:40.711Z,6.43
2023-03-21T21:02:07.481Z,6.25
2023-03-21T21:04:49.890Z,5.93
2023-03-21T21:07:22.349Z,6.47
2023-03-21T21:09:49.509Z,6.22
2023-03-21T21:12:16.818Z,6.72
2023-03-21T21:14:44.272Z,7.00
2023-03-21T21:19:58.093Z,6.85
2023-03-21T21:22:25.094Z,7.13
2023-03-21T21:24:51.959Z,6.63
2023-03-21T21:27:20.034Z,6.68
2023-03-21T21:29:50.052Z,6.80
2023-03-21T21:32:18.929Z,6.45
2023-03-21T21:34:46.015Z,6.53
2023-03-21T21:37:13.060Z,5.80
2023-03-21T21:39:40.291Z,5.75
2023-03-21T21:42:07.327Z,5.43
2023-03-21T21:44:34.176Z,6.07
2023-03-21T21:47:04.293Z,6.78
2023-03-21T21:49:31.444Z,6.15
2023-03-21T21:52:00.139Z,6.20
2023-03-21T21:54:30.458Z,6.43
2023-03-21T21:56:58.204Z,6.40
2023-03-21T21:59:25.236Z,5.63
2023-03-21T22:01:52.315Z,5.80
2023-03-21T22:04:24.961Z,5.97
2023-03-21T22:06:52.123Z,5.43
2023-03-21T22:09:19.088Z,5.70
2023-03-21T22:11:46.138Z,5.70
2023-03-21T22:14:12.950Z,5.90
2023-03-21T22:16:39.874Z,5.55
2023-03-21T22:19:06.817Z,6.18
2023-03-21T22:21:33.599Z,6.20
2023-03-21T22:24:01.037Z,5.32
2023-03-21T22:26:28.022Z,5.30
2023-03-21T22:28:55.318Z,5.40
2023-03-21T22:31:22.859Z,6.05
2023-03-21T22:33:49.984Z,5.93
2023-03-21T22:36:16.924Z,5.00
2023-03-21T22:38:44.176Z,5.35
2023-03-21T22:41:11.256Z,5.43
2023-03-21T22:43:38.181Z,4.97
2023-03-21T22:46:05.580Z,5.53
2023-03-21T22:48:32.713Z,5.47
2023-03-21T22:50:59.783Z,5.55
2023-03-21T22:53:26.655Z,5.40
2023-03-21T22:55:53.611Z,5.15
2023-03-21T22:58:20.768Z,5.82
2023-03-21T23:00:47.784Z,5.43
2023-03-21T23:03:16.975Z,5.63
2023-03-21T23:05:44.139Z,4.80
2023-03-21T23:08:11.464Z,5.50
2023-03-21T23:10:39.632Z,5.07
2023-03-21T23:13:07.184Z,5.60
2023-03-21T23:15:34.056Z,5.50
2023-03-21T23:18:01.003Z,4.97
2023-03-21T23:20:28.178Z,5.32
2023-03-21T23:22:55.089Z,5.00
2023-03-21T23:25:22.070Z,5.25
2023-03-21T23:27:48.889Z,4.80
2023-03-21T23:30:15.821Z,5.20
2023-03-21T23:32:42.942Z,5.20
2023-03-21T23:35:10.058Z,5.28
2023-03-21T23:37:36.936Z,5.28
2023-03-21T23:40:06.532Z,5.13
2023-03-21T23:42:34.513Z,5.60
2023-03-21T23:45:01.465Z,5.45
2023-03-21T23:47:28.425Z,5.43
2023-03-21T23:49:55.239Z,5.75
2023-03-21T23:52:22.106Z,5.55
2023-03-21T23:54:49.014Z,5.40
2023-03-21T23:57:17.612Z,5.15
2023-03-21T23:59:47.169Z,5.20
